createdAt,value
2019-01-26T00:04:35.222Z,12.00
2019-01-26T00:09:29.803Z,10.50
2019-01-26T00:14:24.399Z,11.13
2019-01-26T00:19:19.001Z,11.00
2019-01-26T00:24:13.581Z,11.20
2019-01-26T00:29:08.175Z,10.70
2019-01-26T00:34:02.769Z,10.50
2019-01-26T00:38:57.360Z,10.03
2019-01-26T00:43:51.944Z,9.77
2019-01-26T00:48:46.553Z,10.90
2019-01-26T00:53:41.150Z,10.10
2019-01-26T00:58:35.741Z,9.77
2019-01-26T01:03:30.426Z,9.87
2019-01-26T01:08:25.137Z,9.87
2019-01-26T01:13:19.731Z,9.80
2019-01-26T01:18:14.315Z,10.30
2019-01-26T01:23:08.975Z,9.80
2019-01-26T01:28:03.623Z,10.07
2019-01-26T01:32:58.281Z,10.07
2019-01-26T01:37:52.876Z,9.33
2019-01-26T01:42:47.789Z,9.80
2019-01-26T01:47:42.386Z,9.57
2019-01-26T01:52:36.975Z,10.00
2019-01-26T01:57:31.721Z,9.53
2019-01-26T02:02:26.311Z,9.70
2019-01-26T02:07:20.898Z,9.63
2019-01-26T02:12:15.487Z,9.27
2019-01-26T02:17:10.335Z,9.50
2019-01-26T02:22:05.069Z,9.73
2019-01-26T02:26:59.650Z,10.73
2019-01-26T02:31:54.242Z,9.40
2019-01-26T02:36:48.826Z,10.27
2019-01-26T02:41:43.490Z,9.87
2019-01-26T02:46:38.085Z,10.57
2019-01-26T02:51:32.693Z,10.20
2019-01-26T02:56:27.300Z,10.10
2019-01-26T03:01:21.896Z,10.20
2019-01-26T03:06:16.490Z,10.37
2019-01-26T03:11:11.226Z,10.30
2019-01-26T03:16:06.363Z,10.70
2019-01-26T03:21:00.974Z,11.00
2019-01-26T03:25:55.599Z,11.00
2019-01-26T03:30:50.192Z,10.87
2019-01-26T03:35:44.780Z,10.47
2019-01-26T03:40:39.368Z,10.33
2019-01-26T03:45:34.027Z,10.27
2019-01-26T03:50:28.681Z,11.27
2019-01-26T03:55:23.496Z,10.77
2019-01-26T04:00:21.900Z,10.90
2019-01-26T04:05:16.988Z,10.80
2019-01-26T04:10:15.275Z,11.03
2019-01-26T04:15:19.799Z,10.63
2019-01-26T04:20:20.619Z,11.23
2019-01-26T04:25:15.413Z,11.23
2019-01-26T04:30:15.193Z,10.63
2019-01-26T04:35:11.076Z,10.90
2019-01-26T04:40:10.063Z,10.60
2019-01-26T04:45:07.304Z,10.70
2019-01-26T04:50:01.882Z,11.30
2019-01-26T04:54:56.484Z,10.50
2019-01-26T04:59:51.048Z,9.60
2019-01-26T05:04:45.674Z,9.73
2019-01-26T05:09:40.227Z,9.73
2019-01-26T05:14:34.822Z,9.73
2019-01-26T05:19:29.394Z,8.80
2019-01-26T05:24:23.990Z,8.47
2019-01-26T05:29:18.572Z,7.97
2019-01-26T05:34:13.184Z,8.47
2019-01-26T05:39:09.281Z,8.07
2019-01-26T05:44:03.870Z,8.20
2019-01-26T05:48:58.449Z,7.87
2019-01-26T05:53:53.044Z,8.97
2019-01-26T05:58:47.616Z,7.90
2019-01-26T06:03:42.201Z,8.77
2019-01-26T06:08:36.761Z,8.33
2019-01-26T06:13:31.359Z,8.83
2019-01-26T06:18:26.000Z,9.10
2019-01-26T06:23:20.602Z,9.47
2019-01-26T06:28:15.170Z,8.73
2019-01-26T06:33:09.764Z,8.07
2019-01-26T06:38:04.404Z,8.50
2019-01-26T06:42:59.017Z,7.80
2019-01-26T06:47:53.590Z,7.70
2019-01-26T06:52:48.180Z,8.00
2019-01-26T06:57:42.753Z,8.27
2019-01-26T07:02:37.356Z,6.77
2019-01-26T07:07:45.303Z,6.70
2019-01-26T07:12:39.881Z,6.43
2019-01-26T07:17:34.477Z,6.20
2019-01-26T07:22:29.046Z,6.57
2019-01-26T07:27:23.641Z,6.60
2019-01-26T07:32:18.250Z,7.17
2019-01-26T07:37:12.841Z,6.70
2019-01-26T07:42:07.537Z,6.37
2019-01-26T07:47:02.197Z,6.20
2019-01-26T07:51:56.783Z,6.40
2019-01-26T07:56:51.387Z,6.60
2019-01-26T08:01:46.027Z,6.33
2019-01-26T08:06:40.619Z,6.43
2019-01-26T08:11:35.250Z,7.23
2019-01-26T08:16:29.846Z,6.30
2019-01-26T08:21:24.436Z,6.50
2019-01-26T08:26:19.022Z,6.63
2019-01-26T08:31:13.697Z,6.77
2019-01-26T08:36:08.337Z,6.40
2019-01-26T08:41:02.929Z,6.80
2019-01-26T08:45:57.544Z,6.73
2019-01-26T08:50:52.210Z,6.60
2019-01-26T08:55:46.849Z,6.33
2019-01-26T09:00:41.515Z,6.30
2019-01-26T09:05:40.209Z,9.63
2019-01-26T09:10:34.933Z,7.20
2019-01-26T09:15:29.517Z,6.83
2019-01-26T09:20:24.133Z,6.17
2019-01-26T09:25:18.778Z,8.63
2019-01-26T09:30:22.131Z,7.80
2019-01-26T09:35:16.865Z,7.37
2019-01-26T09:40:23.497Z,7.33
2019-01-26T09:45:20.203Z,7.10
2019-01-26T09:50:15.980Z,6.87
2019-01-26T09:55:14.847Z,7.00
2019-01-26T10:00:16.528Z,6.80
2019-01-26T10:05:11.838Z,7.10
2019-01-26T10:10:11.213Z,6.97
2019-01-26T10:15:10.774Z,6.90
2019-01-26T10:20:12.635Z,7.67
2019-01-26T10:25:11.405Z,7.07
2019-01-26T10:30:10.664Z,6.87
2019-01-26T10:35:07.365Z,6.60
2019-01-26T10:40:02.832Z,7.23
2019-01-26T10:44:57.562Z,6.53
2019-01-26T10:49:52.160Z,7.30
2019-01-26T10:54:46.754Z,7.13
2019-01-26T10:59:41.396Z,6.90
2019-01-26T11:04:35.984Z,7.20
2019-01-26T11:09:30.574Z,7.67
2019-01-26T11:14:25.163Z,7.60
2019-01-26T11:19:19.812Z,7.30
2019-01-26T11:24:14.463Z,7.30
2019-01-26T11:29:09.218Z,7.03
2019-01-26T11:34:04.356Z,6.60
2019-01-26T11:38:58.949Z,6.77
2019-01-26T11:43:53.520Z,6.33
2019-01-26T11:48:48.292Z,6.57
2019-01-26T11:53:42.928Z,6.17
2019-01-26T11:58:37.591Z,6.13
2019-01-26T12:03:33.798Z,6.13
2019-01-26T12:08:28.388Z,6.90
2019-01-26T12:13:22.967Z,6.07
2019-01-26T12:18:17.639Z,6.10
2019-01-26T12:23:12.440Z,6.37
2019-01-26T12:28:07.089Z,6.60
2019-01-26T12:33:01.653Z,7.43
2019-01-26T12:37:56.264Z,7.40
2019-01-26T12:42:50.839Z,7.40
2019-01-26T12:47:45.499Z,7.63
2019-01-26T12:52:41.678Z,7.17
2019-01-26T12:57:36.258Z,7.90
2019-01-26T13:02:30.828Z,6.50
2019-01-26T13:07:25.416Z,6.73
2019-01-26T13:12:20.178Z,6.67
2019-01-26T13:17:14.907Z,6.70
2019-01-26T13:22:09.680Z,6.13
2019-01-26T13:27:04.334Z,7.17
2019-01-26T13:31:58.934Z,6.57
2019-01-26T13:36:53.514Z,6.23
2019-01-26T13:41:48.087Z,6.50
2019-01-26T13:46:42.674Z,7.90
2019-01-26T13:51:37.251Z,7.67
2019-01-26T13:56:31.831Z,7.93
2019-01-26T14:01:26.504Z,7.60
2019-01-26T14:06:21.096Z,6.60
2019-01-26T14:11:15.694Z,6.70
2019-01-26T14:16:10.285Z,6.67
2019-01-26T14:21:04.996Z,6.63
2019-01-26T14:25:59.580Z,6.50
2019-01-26T14:30:56.010Z,6.93
2019-01-26T14:35:50.601Z,7.33
2019-01-26T14:40:45.167Z,7.87
2019-01-26T14:45:39.752Z,7.37
2019-01-26T14:50:34.399Z,8.20
2019-01-26T14:55:31.710Z,8.30
2019-01-26T15:00:38.196Z,7.17
2019-01-26T15:05:32.927Z,6.90
2019-01-26T15:10:27.651Z,7.13
2019-01-26T15:15:22.959Z,7.20
2019-01-26T15:20:30.996Z,6.70
2019-01-26T15:25:25.785Z,7.27
2019-01-26T15:30:27.473Z,7.07
2019-01-26T15:35:22.154Z,6.40
2019-01-26T15:40:16.982Z,6.90
2019-01-26T15:45:22.021Z,6.57
2019-01-26T15:50:16.823Z,7.03
2019-01-26T15:55:15.961Z,6.60
2019-01-26T16:00:15.202Z,6.30
2019-01-26T16:05:10.589Z,6.17
2019-01-26T16:10:09.402Z,6.57
2019-01-26T16:15:05.827Z,7.30
2019-01-26T16:20:00.421Z,7.33
2019-01-26T16:24:55.020Z,7.17
2019-01-26T16:29:49.642Z,6.70
2019-01-26T16:34:44.242Z,7.20
2019-01-26T16:39:38.836Z,6.80
2019-01-26T16:44:33.434Z,7.40
2019-01-26T16:49:28.046Z,7.33
2019-01-26T16:54:22.640Z,6.70
2019-01-26T16:59:17.212Z,7.50
2019-01-26T17:04:11.815Z,7.30
2019-01-26T17:09:09.581Z,7.37
2019-01-26T17:14:04.382Z,7.10
2019-01-26T17:18:59.034Z,7.57
2019-01-26T17:23:53.624Z,7.53
2019-01-26T17:28:48.228Z,7.43
2019-01-26T17:33:42.815Z,7.47
2019-01-26T17:38:37.401Z,7.30
2019-01-26T17:43:32.001Z,8.63
2019-01-26T17:48:26.623Z,7.33
2019-01-26T17:53:21.232Z,7.77
2019-01-26T17:58:15.824Z,7.50
2019-01-26T18:03:10.427Z,7.37
2019-01-26T18:08:05.182Z,8.00
2019-01-26T18:12:59.869Z,7.43
2019-01-26T18:17:54.472Z,8.53
2019-01-26T18:22:49.211Z,8.53
2019-01-26T18:27:44.009Z,8.67
2019-01-26T18:32:38.708Z,8.17
2019-01-26T18:37:33.323Z,8.23
2019-01-26T18:42:27.919Z,8.40
2019-01-26T18:47:22.503Z,10.27
2019-01-26T18:52:17.107Z,10.57
2019-01-26T18:57:11.730Z,10.70
2019-01-26T19:02:06.532Z,10.37
2019-01-26T19:07:01.159Z,10.17
2019-01-26T19:11:55.766Z,10.67
2019-01-26T19:16:50.425Z,9.50
2019-01-26T19:21:45.018Z,10.17
2019-01-26T19:26:39.620Z,9.07
2019-01-26T19:31:34.303Z,10.40
2019-01-26T19:36:28.879Z,10.97
2019-01-26T19:41:23.462Z,10.67
2019-01-26T19:46:18.194Z,9.40
2019-01-26T19:51:12.868Z,9.27
2019-01-26T19:56:07.601Z,10.00
2019-01-26T20:01:02.336Z,11.20
2019-01-26T20:05:57.089Z,12.37
2019-01-26T20:10:51.702Z,12.70
2019-01-26T20:15:46.318Z,12.80
2019-01-26T20:20:41.637Z,12.30
2019-01-26T20:25:36.750Z,11.47
2019-01-26T20:30:34.573Z,11.03
2019-01-26T20:35:29.367Z,11.60
2019-01-26T20:40:25.086Z,11.63
2019-01-26T20:45:26.691Z,9.53
2019-01-26T20:50:21.507Z,10.83
2019-01-26T20:55:16.173Z,11.40
2019-01-26T21:00:20.843Z,10.90
2019-01-26T21:05:15.503Z,11.27
2019-01-26T21:10:23.621Z,11.10
2019-01-26T21:15:18.431Z,11.63
2019-01-26T21:20:22.238Z,11.57
2019-01-26T21:25:16.969Z,10.53
2019-01-26T21:30:21.755Z,11.77
2019-01-26T21:35:16.418Z,11.13
2019-01-26T21:40:15.757Z,12.13
2019-01-26T21:45:14.067Z,12.53
2019-01-26T21:50:15.675Z,11.47
2019-01-26T21:55:10.973Z,12.07
2019-01-26T22:00:21.743Z,11.50
2019-01-26T22:05:16.397Z,9.63
2019-01-26T22:10:15.587Z,7.90
2019-01-26T22:15:17.091Z,6.93
2019-01-26T22:20:24.865Z,6.00
2019-01-26T22:25:20.655Z,5.47
2019-01-26T22:30:31.134Z,5.13
2019-01-26T22:35:25.864Z,5.10
2019-01-26T22:40:29.963Z,4.50
2019-01-26T22:45:26.070Z,5.10
2019-01-26T22:50:26.684Z,5.13
2019-01-26T22:55:22.794Z,5.07
2019-01-26T23:00:41.343Z,4.93
2019-01-26T23:06:24.110Z,4.77
2019-01-26T23:11:32.278Z,5.10
2019-01-26T23:16:56.801Z,4.70
2019-01-26T23:22:25.973Z,4.73
2019-01-26T23:27:42.936Z,5.40
2019-01-26T23:32:37.530Z,5.30
2019-01-26T23:37:32.140Z,5.27
2019-01-26T23:42:26.760Z,4.67
2019-01-26T23:47:21.331Z,4.50
2019-01-26T23:52:16.006Z,3.93
2019-01-26T23:57:10.596Z,3.60
